sensor_id;sensor_type;location;lat;lon;timestamp;P1;durP1;ratioP1;P2;durP2;ratioP2
8654;SDS011;13500;52.514;13.462;2023-07-28T00:02:05;4.10;;;3.70;;
8654;SDS011;13500;52.514;13.462;2023-07-28T00:04:33;5.60;;;3.60;;
8654;SDS011;13500;52.514;13.462;2023-07-28T00:07:02;3.20;;;2.90;;
8654;SDS011;13500;52.514;13.462;2023-07-28T00:09:30;3.97;;;3.10;;
8654;SDS011;13500;52.514;13.462;2023-07-28T00:11:58;3.97;;;3.10;;
8654;SDS011;13500;52.514;13.462;2023-07-28T00:14:26;3.27;;;2.97;;
8654;SDS011;13500;52.514;13.462;2023-07-28T00:16:55;3.97;;;2.90;;
8654;SDS011;13500;52.514;13.462;2023-07-28T00:19:25;3.33;;;3.00;;
8654;SDS011;13500;52.514;13.462;2023-07-28T00:21:54;4.10;;;3.70;;
8654;SDS011;13500;52.514;13.462;2023-07-28T00:24:22;3.63;;;3.33;;
8654;SDS011;13500;52.514;13.462;2023-07-28T00:26:50;4.90;;;3.50;;
8654;SDS011;13500;52.514;13.462;2023-07-28T00:29:18;4.30;;;3.87;;
8654;SDS011;13500;52.514;13.462;2023-07-28T00:31:46;4.73;;;4.33;;
8654;SDS011;13500;52.514;13.462;2023-07-28T00:34:14;5.83;;;4.70;;
8654;SDS011;13500;52.514;13.462;2023-07-28T00:36:45;5.67;;;5.17;;
8654;SDS011;13500;52.514;13.462;2023-07-28T00:39:13;5.10;;;4.60;;
8654;SDS011;13500;52.514;13.462;2023-07-28T00:41:41;6.73;;;6.03;;
8654;SDS011;13500;52.514;13.462;2023-07-28T00:44:09;6.50;;;5.90;;
8654;SDS011;13500;52.514;13.462;2023-07-28T00:46:37;6.50;;;6.00;;
8654;SDS011;13500;52.514;13.462;2023-07-28T00:49:05;7.47;;;6.83;;
8654;SDS011;13500;52.514;13.462;2023-07-28T00:51:33;7.90;;;6.97;;
8654;SDS011;13500;52.514;13.462;2023-07-28T00:54:02;7.43;;;6.73;;
8654;SDS011;13500;52.514;13.462;2023-07-28T00:56:31;7.17;;;6.47;;
8654;SDS011;13500;52.514;13.462;2023-07-28T00:59:00;7.47;;;6.67;;
8654;SDS011;13500;52.514;13.462;2023-07-28T01:01:28;7.57;;;6.33;;
8654;SDS011;13500;52.514;13.462;2023-07-28T01:03:57;6.97;;;6.23;;
8654;SDS011;13500;52.514;13.462;2023-07-28T01:06:26;9.00;;;5.50;;
8654;SDS011;13500;52.514;13.462;2023-07-28T01:08:59;6.53;;;5.37;;
8654;SDS011;13500;52.514;13.462;2023-07-28T01:11:31;6.03;;;5.50;;
8654;SDS011;13500;52.514;13.462;2023-07-28T01:14:01;6.27;;;5.13;;
8654;SDS011;13500;52.514;13.462;2023-07-28T01:16:29;5.13;;;4.67;;
8654;SDS011;13500;52.514;13.462;2023-07-28T01:18:57;5.70;;;5.17;;
8654;SDS011;13500;52.514;13.462;2023-07-28T01:21:26;7.40;;;5.10;;
8654;SDS011;13500;52.514;13.462;2023-07-28T01:23:59;8.13;;;5.43;;
8654;SDS011;13500;52.514;13.462;2023-07-28T01:26:33;4.90;;;4.40;;
8654;SDS011;13500;52.514;13.462;2023-07-28T01:29:03;7.47;;;4.80;;
8654;SDS011;13500;52.514;13.462;2023-07-28T01:31:31;5.50;;;4.80;;
8654;SDS011;13500;52.514;13.462;2023-07-28T01:33:59;5.17;;;4.63;;
8654;SDS011;13500;52.514;13.462;2023-07-28T01:36:27;4.73;;;3.83;;
8654;SDS011;13500;52.514;13.462;2023-07-28T01:38:55;5.30;;;4.80;;
8654;SDS011;13500;52.514;13.462;2023-07-28T01:41:23;5.77;;;4.40;;
8654;SDS011;13500;52.514;13.462;2023-07-28T01:43:52;6.10;;;4.60;;
8654;SDS011;13500;52.514;13.462;2023-07-28T01:46:22;8.90;;;4.50;;
8654;SDS011;13500;52.514;13.462;2023-07-28T01:48:50;6.53;;;4.90;;
8654;SDS011;13500;52.514;13.462;2023-07-28T01:51:18;6.27;;;4.43;;
8654;SDS011;13500;52.514;13.462;2023-07-28T01:53:46;16.77;;;4.60;;
8654;SDS011;13500;52.514;13.462;2023-07-28T01:56:14;4.67;;;3.87;;
8654;SDS011;13500;52.514;13.462;2023-07-28T01:58:42;12.10;;;4.50;;
8654;SDS011;13500;52.514;13.462;2023-07-28T02:01:13;5.80;;;4.43;;
8654;SDS011;13500;52.514;13.462;2023-07-28T02:03:41;5.30;;;4.33;;
8654;SDS011;13500;52.514;13.462;2023-07-28T02:06:09;5.67;;;4.70;;
8654;SDS011;13500;52.514;13.462;2023-07-28T02:08:37;5.67;;;4.57;;
8654;SDS011;13500;52.514;13.462;2023-07-28T02:11:05;8.23;;;5.33;;
8654;SDS011;13500;52.514;13.462;2023-07-28T02:13:33;9.10;;;5.13;;
8654;SDS011;13500;52.514;13.462;2023-07-28T02:16:03;7.10;;;5.50;;
8654;SDS011;13500;52.514;13.462;2023-07-28T02:18:33;6.20;;;5.40;;
8654;SDS011;13500;52.514;13.462;2023-07-28T02:21:01;6.57;;;5.60;;
8654;SDS011;13500;52.514;13.462;2023-07-28T02:23:29;6.00;;;5.40;;
8654;SDS011;13500;52.514;13.462;2023-07-28T02:25:57;8.07;;;5.93;;
8654;SDS011;13500;52.514;13.462;2023-07-28T02:28:26;6.27;;;5.67;;
8654;SDS011;13500;52.514;13.462;2023-07-28T02:30:56;9.27;;;6.23;;
8654;SDS011;13500;52.514;13.462;2023-07-28T02:33:24;7.27;;;6.40;;
8654;SDS011;13500;52.514;13.462;2023-07-28T02:35:53;8.90;;;5.83;;
8654;SDS011;13500;52.514;13.462;2023-07-28T02:38:21;7.27;;;6.53;;
8654;SDS011;13500;52.514;13.462;2023-07-28T02:40:49;7.80;;;6.50;;
8654;SDS011;13500;52.514;13.462;2023-07-28T02:43:17;7.87;;;6.67;;
8654;SDS011;13500;52.514;13.462;2023-07-28T02:45:47;10.60;;;6.80;;
8654;SDS011;13500;52.514;13.462;2023-07-28T02:48:15;11.13;;;6.60;;
8654;SDS011;13500;52.514;13.462;2023-07-28T02:50:45;10.80;;;6.37;;
8654;SDS011;13500;52.514;13.462;2023-07-28T02:53:15;10.23;;;7.03;;
8654;SDS011;13500;52.514;13.462;2023-07-28T02:55:43;8.53;;;6.60;;
8654;SDS011;13500;52.514;13.462;2023-07-28T02:58:11;9.87;;;6.87;;
8654;SDS011;13500;52.514;13.462;2023-07-28T03:00:40;10.27;;;7.53;;
8654;SDS011;13500;52.514;13.462;2023-07-28T03:03:10;12.13;;;6.57;;
8654;SDS011;13500;52.514;13.462;2023-07-28T03:05:39;8.90;;;6.93;;
8654;SDS011;13500;52.514;13.462;2023-07-28T03:08:22;7.70;;;6.83;;
8654;SDS011;13500;52.514;13.462;2023-07-28T03:10:55;12.67;;;6.77;;
8654;SDS011;13500;52.514;13.462;2023-07-28T03:13:24;9.90;;;6.53;;
8654;SDS011;13500;52.514;13.462;2023-07-28T03:15:52;9.97;;;6.60;;
8654;SDS011;13500;52.514;13.462;2023-07-28T03:18:22;12.07;;;7.17;;
8654;SDS011;13500;52.514;13.462;2023-07-28T03:20:50;10.03;;;7.37;;
8654;SDS011;13500;52.514;13.462;2023-07-28T03:23:17;10.73;;;7.17;;
8654;SDS011;13500;52.514;13.462;2023-07-28T03:25:47;9.93;;;7.47;;
8654;SDS011;13500;52.514;13.462;2023-07-28T03:28:15;8.53;;;7.17;;
8654;SDS011;13500;52.514;13.462;2023-07-28T03:30:43;10.60;;;6.60;;
8654;SDS011;13500;52.514;13.462;2023-07-28T03:33:14;10.40;;;6.83;;
8654;SDS011;13500;52.514;13.462;2023-07-28T03:35:42;9.77;;;6.90;;
8654;SDS011;13500;52.514;13.462;2023-07-28T03:38:10;8.50;;;6.93;;
8654;SDS011;13500;52.514;13.462;2023-07-28T03:40:40;8.10;;;6.77;;
8654;SDS011;13500;52.514;13.462;2023-07-28T03:43:09;8.23;;;6.80;;
8654;SDS011;13500;52.514;13.462;2023-07-28T03:45:37;8.60;;;7.03;;
8654;SDS011;13500;52.514;13.462;2023-07-28T03:48:05;9.53;;;7.10;;
8654;SDS011;13500;52.514;13.462;2023-07-28T03:50:33;9.67;;;7.50;;
8654;SDS011;13500;52.514;13.462;2023-07-28T03:53:01;10.70;;;7.70;;
8654;SDS011;13500;52.514;13.462;2023-07-28T03:55:29;9.57;;;7.60;;
8654;SDS011;13500;52.514;13.462;2023-07-28T03:57:57;8.17;;;7.23;;
8654;SDS011;13500;52.514;13.462;2023-07-28T04:00:26;10.07;;;7.33;;
8654;SDS011;13500;52.514;13.462;2023-07-28T04:02:54;11.03;;;7.90;;
8654;SDS011;13500;52.514;13.462;2023-07-28T04:05:22;8.77;;;7.27;;
8654;SDS011;13500;52.514;13.462;2023-07-28T04:07:51;10.83;;;7.57;;
8654;SDS011;13500;52.514;13.462;2023-07-28T04:10:19;9.63;;;7.53;;
8654;SDS011;13500;52.514;13.462;2023-07-28T04:12:47;9.73;;;7.53;;
8654;SDS011;13500;52.514;13.462;2023-07-28T04:15:15;10.50;;;7.33;;
8654;SDS011;13500;52.514;13.462;2023-07-28T04:17:44;8.60;;;7.33;;
8654;SDS011;13500;52.514;13.462;2023-07-28T04:20:12;9.40;;;7.47;;
8654;SDS011;13500;52.514;13.462;2023-07-28T04:22:40;8.50;;;7.53;;
8654;SDS011;13500;52.514;13.462;2023-07-28T04:25:09;9.93;;;7.70;;
8654;SDS011;13500;52.514;13.462;2023-07-28T04:27:41;8.73;;;7.80;;
8654;SDS011;13500;52.514;13.462;2023-07-28T04:30:09;9.70;;;7.70;;
8654;SDS011;13500;52.514;13.462;2023-07-28T04:32:38;9.73;;;7.30;;
8654;SDS011;13500;52.514;13.462;2023-07-28T04:35:15;8.70;;;7.20;;
8654;SDS011;13500;52.514;13.462;2023-07-28T04:37:53;7.80;;;7.00;;
8654;SDS011;13500;52.514;13.462;2023-07-28T04:40:35;10.70;;;7.57;;
8654;SDS011;13500;52.514;13.462;2023-07-28T04:43:03;8.00;;;7.20;;
8654;SDS011;13500;52.514;13.462;2023-07-28T04:45:31;8.27;;;7.37;;
8654;SDS011;13500;52.514;13.462;2023-07-28T04:48:04;8.40;;;7.53;;
8654;SDS011;13500;52.514;13.462;2023-07-28T04:50:34;8.60;;;7.73;;
8654;SDS011;13500;52.514;13.462;2023-07-28T04:53:12;9.50;;;7.70;;
8654;SDS011;13500;52.514;13.462;2023-07-28T04:56:00;8.10;;;7.10;;
8654;SDS011;13500;52.514;13.462;2023-07-28T04:58:29;9.33;;;7.03;;
8654;SDS011;13500;52.514;13.462;2023-07-28T05:01:00;8.97;;;7.60;;
8654;SDS011;13500;52.514;13.462;2023-07-28T05:03:30;10.30;;;7.57;;
8654;SDS011;13500;52.514;13.462;2023-07-28T05:06:16;9.10;;;8.20;;
8654;SDS011;13500;52.514;13.462;2023-07-28T05:08:44;8.83;;;8.03;;
8654;SDS011;13500;52.514;13.462;2023-07-28T05:11:17;8.03;;;7.23;;
8654;SDS011;13500;52.514;13.462;2023-07-28T05:13:45;8.23;;;7.47;;
8654;SDS011;13500;52.514;13.462;2023-07-28T05:16:13;9.20;;;7.27;;
8654;SDS011;13500;52.514;13.462;2023-07-28T05:19:00;8.93;;;8.07;;
8654;SDS011;13500;52.514;13.462;2023-07-28T05:21:50;7.87;;;7.17;;
8654;SDS011;13500;52.514;13.462;2023-07-28T05:24:22;8.57;;;7.67;;
8654;SDS011;13500;52.514;13.462;2023-07-28T05:26:50;10.03;;;7.10;;
8654;SDS011;13500;52.514;13.462;2023-07-28T05:29:18;7.60;;;6.97;;
8654;SDS011;13500;52.514;13.462;2023-07-28T05:31:47;7.47;;;6.70;;
8654;SDS011;13500;52.514;13.462;2023-07-28T05:34:31;8.83;;;7.03;;
8654;SDS011;13500;52.514;13.462;2023-07-28T05:37:01;7.53;;;6.80;;
8654;SDS011;13500;52.514;13.462;2023-07-28T05:39:32;8.87;;;6.87;;
8654;SDS011;13500;52.514;13.462;2023-07-28T05:42:00;7.20;;;6.50;;
8654;SDS011;13500;52.514;13.462;2023-07-28T05:44:29;6.70;;;6.10;;
8654;SDS011;13500;52.514;13.462;2023-07-28T05:46:57;6.23;;;5.73;;
8654;SDS011;13500;52.514;13.462;2023-07-28T05:49:26;7.93;;;5.60;;
8654;SDS011;13500;52.514;13.462;2023-07-28T05:51:54;8.33;;;5.60;;
8654;SDS011;13500;52.514;13.462;2023-07-28T05:54:24;5.90;;;5.40;;
8654;SDS011;13500;52.514;13.462;2023-07-28T05:56:54;11.70;;;5.90;;
8654;SDS011;13500;52.514;13.462;2023-07-28T05:59:22;7.33;;;6.63;;
8654;SDS011;13500;52.514;13.462;2023-07-28T06:01:50;7.27;;;6.67;;
8654;SDS011;13500;52.514;13.462;2023-07-28T06:04:33;9.50;;;7.63;;
8654;SDS011;13500;52.514;13.462;2023-07-28T06:07:03;11.53;;;7.37;;
8654;SDS011;13500;52.514;13.462;2023-07-28T06:09:34;8.10;;;7.30;;
8654;SDS011;13500;52.514;13.462;2023-07-28T06:12:02;7.93;;;6.77;;
8654;SDS011;13500;52.514;13.462;2023-07-28T06:14:30;8.57;;;7.10;;
8654;SDS011;13500;52.514;13.462;2023-07-28T06:17:03;7.90;;;7.07;;
8654;SDS011;13500;52.514;13.462;2023-07-28T06:19:33;8.47;;;7.17;;
8654;SDS011;13500;52.514;13.462;2023-07-28T06:22:01;8.20;;;7.47;;
8654;SDS011;13500;52.514;13.462;2023-07-28T06:24:31;8.43;;;7.43;;
8654;SDS011;13500;52.514;13.462;2023-07-28T06:27:01;10.93;;;7.60;;
8654;SDS011;13500;52.514;13.462;2023-07-28T06:29:35;8.27;;;7.47;;
8654;SDS011;13500;52.514;13.462;2023-07-28T06:32:04;8.37;;;7.57;;
8654;SDS011;13500;52.514;13.462;2023-07-28T06:34:32;9.13;;;8.23;;
8654;SDS011;13500;52.514;13.462;2023-07-28T06:37:01;9.03;;;8.23;;
8654;SDS011;13500;52.514;13.462;2023-07-28T06:39:28;8.10;;;7.40;;
8654;SDS011;13500;52.514;13.462;2023-07-28T06:41:57;8.40;;;7.60;;
8654;SDS011;13500;52.514;13.462;2023-07-28T06:44:27;9.27;;;8.30;;
8654;SDS011;13500;52.514;13.462;2023-07-28T06:46:55;8.77;;;7.87;;
8654;SDS011;13500;52.514;13.462;2023-07-28T06:49:23;8.57;;;7.33;;
8654;SDS011;13500;52.514;13.462;2023-07-28T06:51:51;10.00;;;7.67;;
8654;SDS011;13500;52.514;13.462;2023-07-28T06:54:19;9.50;;;6.93;;
8654;SDS011;13500;52.514;13.462;2023-07-28T06:56:47;8.43;;;6.90;;
8654;SDS011;13500;52.514;13.462;2023-07-28T06:59:15;7.70;;;7.00;;
8654;SDS011;13500;52.514;13.462;2023-07-28T07:01:49;9.33;;;7.27;;
8654;SDS011;13500;52.514;13.462;2023-07-28T07:04:17;7.23;;;6.57;;
8654;SDS011;13500;52.514;13.462;2023-07-28T07:06:46;6.50;;;5.47;;
8654;SDS011;13500;52.514;13.462;2023-07-28T07:09:14;7.97;;;5.63;;
8654;SDS011;13500;52.514;13.462;2023-07-28T07:11:42;7.00;;;4.90;;
8654;SDS011;13500;52.514;13.462;2023-07-28T07:14:10;5.80;;;5.27;;
8654;SDS011;13500;52.514;13.462;2023-07-28T07:16:38;5.27;;;4.53;;
8654;SDS011;13500;52.514;13.462;2023-07-28T07:19:08;5.47;;;4.80;;
8654;SDS011;13500;52.514;13.462;2023-07-28T07:21:36;4.60;;;4.30;;
8654;SDS011;13500;52.514;13.462;2023-07-28T07:24:04;4.93;;;3.90;;
8654;SDS011;13500;52.514;13.462;2023-07-28T07:26:32;6.47;;;4.10;;
8654;SDS011;13500;52.514;13.462;2023-07-28T07:29:01;5.03;;;4.00;;
8654;SDS011;13500;52.514;13.462;2023-07-28T07:31:29;4.40;;;3.70;;
8654;SDS011;13500;52.514;13.462;2023-07-28T07:33:57;3.83;;;3.43;;
8654;SDS011;13500;52.514;13.462;2023-07-28T07:36:26;8.27;;;4.20;;
8654;SDS011;13500;52.514;13.462;2023-07-28T07:38:54;5.23;;;4.07;;
8654;SDS011;13500;52.514;13.462;2023-07-28T07:41:22;3.60;;;3.30;;
8654;SDS011;13500;52.514;13.462;2023-07-28T07:43:52;3.83;;;3.50;;
8654;SDS011;13500;52.514;13.462;2023-07-28T07:46:22;3.53;;;3.20;;
8654;SDS011;13500;52.514;13.462;2023-07-28T07:48:50;3.90;;;3.20;;
8654;SDS011;13500;52.514;13.462;2023-07-28T07:51:18;4.67;;;2.70;;
8654;SDS011;13500;52.514;13.462;2023-07-28T07:53:47;3.40;;;2.70;;
8654;SDS011;13500;52.514;13.462;2023-07-28T07:56:15;2.93;;;2.73;;
8654;SDS011;13500;52.514;13.462;2023-07-28T07:58:43;3.37;;;2.50;;
8654;SDS011;13500;52.514;13.462;2023-07-28T08:01:11;6.53;;;2.73;;
8654;SDS011;13500;52.514;13.462;2023-07-28T08:03:39;2.90;;;2.17;;
8654;SDS011;13500;52.514;13.462;2023-07-28T08:06:07;2.13;;;2.00;;
8654;SDS011;13500;52.514;13.462;2023-07-28T08:08:37;4.23;;;2.30;;
8654;SDS011;13500;52.514;13.462;2023-07-28T08:11:10;7.30;;;2.23;;
8654;SDS011;13500;52.514;13.462;2023-07-28T08:13:38;5.03;;;2.00;;
8654;SDS011;13500;52.514;13.462;2023-07-28T08:16:06;3.33;;;1.40;;
8654;SDS011;13500;52.514;13.462;2023-07-28T08:18:35;4.13;;;1.60;;
8654;SDS011;13500;52.514;13.462;2023-07-28T08:21:03;1.70;;;1.57;;
8654;SDS011;13500;52.514;13.462;2023-07-28T08:23:31;3.10;;;1.60;;
8654;SDS011;13500;52.514;13.462;2023-07-28T08:25:59;4.73;;;1.83;;
8654;SDS011;13500;52.514;13.462;2023-07-28T08:28:28;1.83;;;1.70;;
8654;SDS011;13500;52.514;13.462;2023-07-28T08:30:56;6.27;;;2.00;;
8654;SDS011;13500;52.514;13.462;2023-07-28T08:33:25;9.50;;;2.53;;
8654;SDS011;13500;52.514;13.462;2023-07-28T08:35:53;12.10;;;3.07;;
8654;SDS011;13500;52.514;13.462;2023-07-28T08:38:21;5.30;;;2.30;;
8654;SDS011;13500;52.514;13.462;2023-07-28T08:40:49;2.40;;;2.20;;
8654;SDS011;13500;52.514;13.462;2023-07-28T08:43:17;3.63;;;2.67;;
8654;SDS011;13500;52.514;13.462;2023-07-28T08:45:47;3.27;;;2.03;;
8654;SDS011;13500;52.514;13.462;2023-07-28T08:48:14;2.57;;;2.20;;
8654;SDS011;13500;52.514;13.462;2023-07-28T08:50:43;1.83;;;1.70;;
8654;SDS011;13500;52.514;13.462;2023-07-28T08:53:10;2.53;;;2.20;;
8654;SDS011;13500;52.514;13.462;2023-07-28T08:55:38;3.10;;;2.40;;
8654;SDS011;13500;52.514;13.462;2023-07-28T08:58:16;4.23;;;2.00;;
8654;SDS011;13500;52.514;13.462;2023-07-28T09:00:47;2.57;;;2.23;;
8654;SDS011;13500;52.514;13.462;2023-07-28T09:03:17;2.00;;;1.50;;
8654;SDS011;13500;52.514;13.462;2023-07-28T09:05:45;1.50;;;1.40;;
8654;SDS011;13500;52.514;13.462;2023-07-28T09:08:13;3.23;;;1.70;;
8654;SDS011;13500;52.514;13.462;2023-07-28T09:10:42;3.57;;;1.97;;
8654;SDS011;13500;52.514;13.462;2023-07-28T09:13:11;3.73;;;1.63;;
8654;SDS011;13500;52.514;13.462;2023-07-28T09:15:43;2.17;;;1.60;;
8654;SDS011;13500;52.514;13.462;2023-07-28T09:18:14;2.37;;;1.70;;
8654;SDS011;13500;52.514;13.462;2023-07-28T09:20:43;1.60;;;1.50;;
8654;SDS011;13500;52.514;13.462;2023-07-28T09:23:13;2.13;;;1.83;;
8654;SDS011;13500;52.514;13.462;2023-07-28T09:25:41;2.40;;;1.90;;
8654;SDS011;13500;52.514;13.462;2023-07-28T09:28:09;1.80;;;1.70;;
8654;SDS011;13500;52.514;13.462;2023-07-28T09:30:45;3.77;;;2.13;;
8654;SDS011;13500;52.514;13.462;2023-07-28T09:33:15;3.17;;;2.50;;
8654;SDS011;13500;52.514;13.462;2023-07-28T09:35:56;2.97;;;2.47;;
8654;SDS011;13500;52.514;13.462;2023-07-28T09:38:24;4.13;;;2.50;;
8654;SDS011;13500;52.514;13.462;2023-07-28T09:40:56;3.10;;;2.33;;
8654;SDS011;13500;52.514;13.462;2023-07-28T09:43:25;4.23;;;2.43;;
8654;SDS011;13500;52.514;13.462;2023-07-28T09:45:53;2.30;;;2.10;;
8654;SDS011;13500;52.514;13.462;2023-07-28T09:48:24;1.53;;;1.43;;
8654;SDS011;13500;52.514;13.462;2023-07-28T09:50:52;2.30;;;2.10;;
8654;SDS011;13500;52.514;13.462;2023-07-28T09:53:20;2.17;;;1.93;;
8654;SDS011;13500;52.514;13.462;2023-07-28T09:55:48;5.70;;;1.90;;
8654;SDS011;13500;52.514;13.462;2023-07-28T09:58:17;2.73;;;1.73;;
8654;SDS011;13500;52.514;13.462;2023-07-28T10:00:45;3.87;;;2.00;;
8654;SDS011;13500;52.514;13.462;2023-07-28T10:03:13;3.97;;;1.70;;
8654;SDS011;13500;52.514;13.462;2023-07-28T10:05:43;4.93;;;2.40;;
8654;SDS011;13500;52.514;13.462;2023-07-28T10:08:11;6.37;;;1.90;;
8654;SDS011;13500;52.514;13.462;2023-07-28T10:10:40;1.70;;;1.60;;
8654;SDS011;13500;52.514;13.462;2023-07-28T10:13:14;2.93;;;1.93;;
8654;SDS011;13500;52.514;13.462;2023-07-28T10:15:46;2.20;;;2.00;;
8654;SDS011;13500;52.514;13.462;2023-07-28T10:18:15;5.50;;;2.80;;
8654;SDS011;13500;52.514;13.462;2023-07-28T10:20:44;4.43;;;2.57;;
8654;SDS011;13500;52.514;13.462;2023-07-28T10:23:16;4.33;;;2.33;;
8654;SDS011;13500;52.514;13.462;2023-07-28T10:25:45;4.23;;;2.70;;
8654;SDS011;13500;52.514;13.462;2023-07-28T10:28:25;5.57;;;2.70;;
8654;SDS011;13500;52.514;13.462;2023-07-28T10:30:55;2.23;;;2.13;;
8654;SDS011;13500;52.514;13.462;2023-07-28T10:33:27;4.70;;;2.73;;
8654;SDS011;13500;52.514;13.462;2023-07-28T10:35:58;3.03;;;2.73;;
8654;SDS011;13500;52.514;13.462;2023-07-28T10:38:30;4.13;;;2.70;;
8654;SDS011;13500;52.514;13.462;2023-07-28T10:41:05;5.10;;;2.87;;
8654;SDS011;13500;52.514;13.462;2023-07-28T10:43:35;2.80;;;2.60;;
8654;SDS011;13500;52.514;13.462;2023-07-28T10:46:05;3.13;;;2.83;;
8654;SDS011;13500;52.514;13.462;2023-07-28T10:48:36;3.47;;;3.17;;
8654;SDS011;13500;52.514;13.462;2023-07-28T10:51:07;3.50;;;3.20;;
8654;SDS011;13500;52.514;13.462;2023-07-28T10:53:35;5.90;;;3.80;;
8654;SDS011;13500;52.514;13.462;2023-07-28T10:56:03;3.20;;;3.00;;
8654;SDS011;13500;52.514;13.462;2023-07-28T10:58:34;2.90;;;2.70;;
8654;SDS011;13500;52.514;13.462;2023-07-28T11:01:03;5.03;;;3.20;;
8654;SDS011;13500;52.514;13.462;2023-07-28T11:03:31;5.63;;;3.20;;
8654;SDS011;13500;52.514;13.462;2023-07-28T11:06:03;7.93;;;3.13;;
8654;SDS011;13500;52.514;13.462;2023-07-28T11:08:34;3.73;;;2.50;;
8654;SDS011;13500;52.514;13.462;2023-07-28T11:11:04;13.10;;;3.30;;
8654;SDS011;13500;52.514;13.462;2023-07-28T11:13:33;5.40;;;2.83;;
8654;SDS011;13500;52.514;13.462;2023-07-28T11:16:07;3.03;;;2.60;;
8654;SDS011;13500;52.514;13.462;2023-07-28T11:18:37;4.30;;;3.37;;
8654;SDS011;13500;52.514;13.462;2023-07-28T11:21:05;4.13;;;3.30;;
8654;SDS011;13500;52.514;13.462;2023-07-28T11:23:34;9.57;;;5.93;;
8654;SDS011;13500;52.514;13.462;2023-07-28T11:26:02;13.23;;;4.13;;
8654;SDS011;13500;52.514;13.462;2023-07-28T11:28:30;5.90;;;4.27;;
8654;SDS011;13500;52.514;13.462;2023-07-28T11:30:59;5.07;;;3.90;;
8654;SDS011;13500;52.514;13.462;2023-07-28T11:33:27;7.43;;;3.63;;
8654;SDS011;13500;52.514;13.462;2023-07-28T11:35:55;4.00;;;3.67;;
8654;SDS011;13500;52.514;13.462;2023-07-28T11:38:24;3.77;;;3.47;;
8654;SDS011;13500;52.514;13.462;2023-07-28T11:40:53;4.23;;;3.83;;
8654;SDS011;13500;52.514;13.462;2023-07-28T11:43:22;4.33;;;3.60;;
8654;SDS011;13500;52.514;13.462;2023-07-28T11:45:52;6.83;;;3.80;;
8654;SDS011;13500;52.514;13.462;2023-07-28T11:48:19;3.70;;;3.40;;
8654;SDS011;13500;52.514;13.462;2023-07-28T11:50:47;5.73;;;3.07;;
8654;SDS011;13500;52.514;13.462;2023-07-28T11:53:19;3.20;;;2.90;;
8654;SDS011;13500;52.514;13.462;2023-07-28T11:55:48;3.30;;;2.53;;
8654;SDS011;13500;52.514;13.462;2023-07-28T11:58:17;3.17;;;2.93;;
8654;SDS011;13500;52.514;13.462;2023-07-28T12:00:49;3.90;;;3.53;;
8654;SDS011;13500;52.514;13.462;2023-07-28T12:03:17;5.27;;;4.77;;
8654;SDS011;13500;52.514;13.462;2023-07-28T12:08:35;2.83;;;2.53;;
8654;SDS011;13500;52.514;13.462;2023-07-28T12:11:04;2.67;;;2.47;;
8654;SDS011;13500;52.514;13.462;2023-07-28T12:13:47;3.80;;;2.87;;
8654;SDS011;13500;52.514;13.462;2023-07-28T12:19:08;2.53;;;2.33;;
8654;SDS011;13500;52.514;13.462;2023-07-28T12:21:37;4.87;;;3.43;;
8654;SDS011;13500;52.514;13.462;2023-07-28T12:24:05;2.00;;;1.80;;
8654;SDS011;13500;52.514;13.462;2023-07-28T12:26:34;2.67;;;2.30;;
8654;SDS011;13500;52.514;13.462;2023-07-28T12:29:07;2.43;;;2.00;;
8654;SDS011;13500;52.514;13.462;2023-07-28T12:31:37;1.90;;;1.80;;
8654;SDS011;13500;52.514;13.462;2023-07-28T12:34:08;2.30;;;2.10;;
8654;SDS011;13500;52.514;13.462;2023-07-28T12:36:36;2.40;;;2.20;;
8654;SDS011;13500;52.514;13.462;2023-07-28T12:39:07;3.03;;;2.03;;
8654;SDS011;13500;52.514;13.462;2023-07-28T12:41:38;2.43;;;2.20;;
8654;SDS011;13500;52.514;13.462;2023-07-28T12:44:09;1.80;;;1.70;;
8654;SDS011;13500;52.514;13.462;2023-07-28T12:46:41;2.30;;;2.10;;
8654;SDS011;13500;52.514;13.462;2023-07-28T12:49:10;2.33;;;2.13;;
8654;SDS011;13500;52.514;13.462;2023-07-28T12:51:47;1.87;;;1.77;;
8654;SDS011;13500;52.514;13.462;2023-07-28T12:54:18;2.07;;;1.93;;
8654;SDS011;13500;52.514;13.462;2023-07-28T12:56:46;1.87;;;1.67;;
8654;SDS011;13500;52.514;13.462;2023-07-28T12:59:36;2.20;;;2.00;;
8654;SDS011;13500;52.514;13.462;2023-07-28T13:02:24;1.93;;;1.80;;
8654;SDS011;13500;52.514;13.462;2023-07-28T13:04:52;3.23;;;2.40;;
8654;SDS011;13500;52.514;13.462;2023-07-28T13:07:20;2.10;;;1.90;;
8654;SDS011;13500;52.514;13.462;2023-07-28T13:09:51;2.27;;;1.97;;
8654;SDS011;13500;52.514;13.462;2023-07-28T13:12:19;2.63;;;2.00;;
8654;SDS011;13500;52.514;13.462;2023-07-28T13:14:51;2.27;;;2.07;;
8654;SDS011;13500;52.514;13.462;2023-07-28T13:17:19;2.87;;;2.10;;
8654;SDS011;13500;52.514;13.462;2023-07-28T13:19:47;1.70;;;1.60;;
8654;SDS011;13500;52.514;13.462;2023-07-28T13:22:16;3.20;;;1.67;;
8654;SDS011;13500;52.514;13.462;2023-07-28T13:24:43;2.30;;;1.70;;
8654;SDS011;13500;52.514;13.462;2023-07-28T13:27:11;2.00;;;1.90;;
8654;SDS011;13500;52.514;13.462;2023-07-28T13:29:39;2.20;;;1.93;;
8654;SDS011;13500;52.514;13.462;2023-07-28T13:32:16;1.87;;;1.70;;
8654;SDS011;13500;52.514;13.462;2023-07-28T13:34:44;2.53;;;2.10;;
8654;SDS011;13500;52.514;13.462;2023-07-28T13:37:12;2.97;;;2.40;;
8654;SDS011;13500;52.514;13.462;2023-07-28T13:39:41;2.80;;;2.60;;
8654;SDS011;13500;52.514;13.462;2023-07-28T13:42:09;2.73;;;2.30;;
8654;SDS011;13500;52.514;13.462;2023-07-28T13:44:38;2.20;;;2.00;;
8654;SDS011;13500;52.514;13.462;2023-07-28T13:47:24;2.90;;;1.87;;
8654;SDS011;13500;52.514;13.462;2023-07-28T13:49:52;2.37;;;2.17;;
8654;SDS011;13500;52.514;13.462;2023-07-28T13:52:20;2.60;;;2.40;;
8654;SDS011;13500;52.514;13.462;2023-07-28T13:54:48;2.60;;;2.40;;
8654;SDS011;13500;52.514;13.462;2023-07-28T13:57:19;2.30;;;2.10;;
8654;SDS011;13500;52.514;13.462;2023-07-28T13:59:47;3.27;;;2.90;;
8654;SDS011;13500;52.514;13.462;2023-07-28T14:02:16;3.40;;;2.40;;
8654;SDS011;13500;52.514;13.462;2023-07-28T14:04:46;2.40;;;2.20;;
8654;SDS011;13500;52.514;13.462;2023-07-28T14:07:14;2.67;;;2.00;;
8654;SDS011;13500;52.514;13.462;2023-07-28T14:09:42;2.77;;;2.40;;
8654;SDS011;13500;52.514;13.462;2023-07-28T14:12:09;2.20;;;2.00;;
8654;SDS011;13500;52.514;13.462;2023-07-28T14:14:37;3.57;;;2.20;;
8654;SDS011;13500;52.514;13.462;2023-07-28T14:17:05;2.10;;;2.00;;
8654;SDS011;13500;52.514;13.462;2023-07-28T14:19:33;2.43;;;2.23;;
8654;SDS011;13500;52.514;13.462;2023-07-28T14:22:03;2.53;;;2.13;;
8654;SDS011;13500;52.514;13.462;2023-07-28T14:24:31;2.40;;;2.20;;
8654;SDS011;13500;52.514;13.462;2023-07-28T14:26:59;2.43;;;2.23;;
8654;SDS011;13500;52.514;13.462;2023-07-28T14:29:27;2.40;;;2.20;;
8654;SDS011;13500;52.514;13.462;2023-07-28T14:31:54;2.67;;;2.10;;
8654;SDS011;13500;52.514;13.462;2023-07-28T14:34:23;2.43;;;1.90;;
8654;SDS011;13500;52.514;13.462;2023-07-28T14:36:51;2.07;;;1.83;;
8654;SDS011;13500;52.514;13.462;2023-07-28T14:39:20;2.27;;;2.07;;
8654;SDS011;13500;52.514;13.462;2023-07-28T14:41:48;2.13;;;1.80;;
8654;SDS011;13500;52.514;13.462;2023-07-28T14:44:16;2.13;;;1.97;;
8654;SDS011;13500;52.514;13.462;2023-07-28T14:46:44;2.00;;;1.80;;
8654;SDS011;13500;52.514;13.462;2023-07-28T14:49:12;2.83;;;2.00;;
8654;SDS011;13500;52.514;13.462;2023-07-28T14:51:40;2.00;;;1.80;;
8654;SDS011;13500;52.514;13.462;2023-07-28T14:54:08;4.23;;;2.10;;
8654;SDS011;13500;52.514;13.462;2023-07-28T14:56:38;2.10;;;1.90;;
8654;SDS011;13500;52.514;13.462;2023-07-28T14:59:05;1.97;;;1.70;;
8654;SDS011;13500;52.514;13.462;2023-07-28T15:01:33;1.63;;;1.53;;
8654;SDS011;13500;52.514;13.462;2023-07-28T15:04:02;1.97;;;1.87;;
8654;SDS011;13500;52.514;13.462;2023-07-28T15:06:30;1.83;;;1.73;;